createdAt,value
2018-04-08T00:00:23.722Z,14.50
2018-04-08T00:05:18.071Z,14.50
2018-04-08T00:10:12.632Z,14.50
2018-04-08T00:15:07.001Z,14.50
2018-04-08T00:20:02.459Z,14.50
2018-04-08T00:24:56.825Z,14.40
2018-04-08T00:29:51.968Z,14.60
2018-04-08T00:34:46.343Z,14.60
2018-04-08T00:39:41.488Z,14.60
2018-04-08T00:44:36.016Z,14.60
2018-04-08T00:49:30.128Z,14.50
2018-04-08T00:54:31.698Z,14.50
2018-04-08T00:59:26.051Z,14.40
2018-04-08T01:04:21.183Z,14.40
2018-04-08T01:09:15.732Z,14.40
2018-04-08T01:14:10.116Z,14.30
2018-04-08T01:19:04.544Z,14.30
2018-04-08T01:23:58.922Z,14.20
2018-04-08T01:28:53.293Z,14.20
2018-04-08T01:33:48.460Z,14.10
2018-04-08T01:38:42.839Z,14.10
2018-04-08T01:43:37.190Z,14.10
2018-04-08T01:48:31.572Z,14.20
2018-04-08T01:53:25.920Z,14.20
2018-04-08T01:58:21.041Z,14.10
2018-04-08T02:03:16.179Z,14.20
2018-04-08T02:08:10.534Z,14.10
2018-04-08T02:13:04.898Z,14.20
2018-04-08T02:17:59.258Z,14.20
2018-04-08T02:22:54.386Z,14.00
2018-04-08T02:27:48.666Z,14.00
2018-04-08T02:32:43.841Z,14.00
2018-04-08T02:37:38.359Z,13.90
2018-04-08T02:42:32.723Z,14.00
2018-04-08T02:47:27.104Z,14.10
2018-04-08T02:52:22.245Z,14.10
2018-04-08T02:57:16.373Z,14.10
2018-04-08T03:02:11.104Z,14.10
2018-04-08T03:07:05.478Z,14.10
2018-04-08T03:11:59.828Z,14.10
2018-04-08T03:16:54.190Z,14.10
2018-04-08T03:21:48.565Z,14.10
2018-04-08T03:26:43.693Z,14.10
2018-04-08T03:31:37.807Z,14.10
2018-04-08T03:36:32.249Z,14.10
2018-04-08T03:41:26.614Z,14.00
2018-04-08T03:46:20.986Z,14.00
2018-04-08T03:51:15.343Z,13.90
2018-04-08T03:56:09.707Z,13.80
2018-04-08T04:01:03.836Z,13.80
2018-04-08T04:05:58.111Z,13.70
2018-04-08T04:10:52.420Z,13.70
2018-04-08T04:15:46.544Z,13.50
2018-04-08T04:20:57.973Z,13.40
2018-04-08T04:26:10.784Z,13.20
2018-04-08T04:31:04.896Z,13.20
2018-04-08T04:35:59.646Z,13.20
2018-04-08T04:40:53.998Z,13.20
2018-04-08T04:45:48.363Z,13.30
2018-04-08T04:50:42.957Z,13.40
2018-04-08T04:55:37.103Z,13.50
2018-04-08T05:00:31.283Z,13.70
2018-04-08T05:05:25.702Z,13.70
2018-04-08T05:10:20.071Z,13.70
2018-04-08T05:15:14.445Z,13.80
2018-04-08T05:20:08.820Z,13.80
2018-04-08T05:25:03.206Z,13.90
2018-04-08T05:29:57.597Z,14.00
2018-04-08T05:34:51.960Z,14.10
2018-04-08T05:39:46.335Z,14.20
2018-04-08T05:44:40.707Z,14.40
2018-04-08T05:49:34.849Z,14.60
2018-04-08T05:54:30.007Z,15.10
2018-04-08T05:59:24.439Z,15.00
2018-04-08T06:04:18.577Z,15.30
2018-04-08T06:09:12.944Z,15.60
2018-04-08T06:14:07.315Z,15.80
2018-04-08T06:19:01.665Z,16.20
2018-04-08T06:23:56.017Z,17.40
2018-04-08T06:28:50.392Z,19.30
2018-04-08T06:33:44.762Z,20.90
2018-04-08T06:38:38.886Z,21.60
2018-04-08T06:43:33.179Z,22.50
2018-04-08T06:48:27.811Z,23.10
2018-04-08T06:53:22.185Z,21.80
2018-04-08T06:58:17.332Z,21.60
2018-04-08T07:03:12.842Z,23.10
2018-04-08T07:08:08.105Z,24.40
2018-04-08T07:13:02.468Z,24.40
2018-04-08T07:17:57.369Z,26.40
2018-04-08T07:22:51.738Z,26.30
2018-04-08T07:27:46.096Z,26.90
2018-04-08T07:32:41.274Z,26.00
2018-04-08T07:37:37.598Z,25.90
2018-04-08T07:42:31.971Z,23.40
2018-04-08T07:47:27.294Z,21.70
2018-04-08T07:52:21.744Z,21.60
2018-04-08T07:57:16.135Z,21.20
2018-04-08T08:02:10.798Z,22.30
2018-04-08T08:07:05.943Z,26.10
2018-04-08T08:12:01.118Z,25.60
2018-04-08T08:16:55.476Z,25.60
2018-04-08T08:21:50.486Z,24.40
2018-04-08T08:26:45.447Z,23.80
2018-04-08T08:31:40.236Z,23.10
2018-04-08T08:36:34.782Z,22.80
2018-04-08T08:41:29.186Z,22.70
2018-04-08T08:46:23.564Z,22.70
2018-04-08T08:51:17.998Z,22.60
2018-04-08T08:56:12.566Z,23.10
2018-04-08T09:01:06.942Z,23.00
2018-04-08T09:06:04.619Z,22.80
2018-04-08T09:10:58.620Z,23.30
2018-04-08T09:15:53.540Z,23.70
2018-04-08T09:20:54.066Z,24.70
2018-04-08T09:25:58.317Z,24.60
2018-04-08T09:30:53.482Z,26.20
2018-04-08T09:35:47.855Z,26.20
2018-04-08T09:40:42.986Z,33.00
2018-04-08T09:45:37.455Z,32.80
2018-04-08T09:50:31.988Z,35.00
2018-04-08T09:55:26.165Z,32.90
2018-04-08T10:16:12.107Z,28.80
2018-04-08T10:21:06.263Z,27.80
2018-04-08T10:26:00.643Z,27.00
2018-04-08T10:30:55.018Z,25.90
2018-04-08T10:35:49.379Z,25.20
2018-04-08T10:40:43.751Z,24.90
2018-04-08T10:45:38.113Z,24.80
2018-04-08T10:50:32.494Z,24.60
2018-04-08T10:55:27.098Z,24.40
2018-04-08T11:00:22.281Z,24.40
2018-04-08T11:05:16.657Z,24.40
2018-04-08T11:10:11.030Z,24.40
2018-04-08T11:15:05.578Z,24.40
2018-04-08T11:19:59.937Z,24.30
2018-04-08T11:24:54.389Z,24.20
2018-04-08T11:29:48.833Z,23.90
2018-04-08T11:34:43.411Z,23.70
2018-04-08T11:39:37.635Z,23.80
2018-04-08T11:44:32.030Z,24.00
2018-04-08T11:49:26.162Z,24.50
2018-04-08T11:54:21.294Z,25.90
2018-04-08T11:59:15.476Z,25.80
2018-04-08T12:04:10.474Z,26.90
2018-04-08T12:09:04.130Z,26.80
2018-04-08T12:13:58.491Z,27.10
2018-04-08T12:18:53.528Z,27.20
2018-04-08T12:23:47.665Z,27.20
2018-04-08T12:28:41.805Z,27.40
2018-04-08T12:33:35.952Z,27.40
2018-04-08T12:38:30.326Z,27.40
2018-04-08T12:43:24.699Z,27.20
2018-04-08T12:48:23.443Z,26.30
2018-04-08T12:53:17.629Z,26.30
2018-04-08T12:58:12.196Z,25.90
2018-04-08T13:03:06.349Z,25.90
2018-04-08T13:08:00.714Z,25.70
2018-04-08T13:12:55.632Z,25.50
2018-04-08T13:17:50.533Z,25.40
2018-04-08T13:22:44.912Z,25.30
2018-04-08T13:27:40.183Z,25.10
2018-04-08T13:32:35.328Z,25.10
2018-04-08T13:37:31.585Z,25.10
2018-04-08T13:42:25.936Z,25.10
2018-04-08T13:47:21.085Z,25.00
2018-04-08T13:52:15.463Z,25.00
2018-04-08T13:57:10.795Z,25.10
2018-04-08T14:02:06.038Z,25.20
2018-04-08T14:07:00.417Z,25.20
2018-04-08T14:11:54.900Z,25.30
2018-04-08T14:16:49.264Z,25.40
2018-04-08T14:21:43.665Z,25.50
2018-04-08T14:26:38.026Z,25.50
2018-04-08T14:31:33.843Z,25.40
2018-04-08T14:36:27.996Z,25.40
2018-04-08T14:41:22.636Z,25.40
2018-04-08T14:46:17.184Z,25.40
2018-04-08T14:51:12.088Z,25.40
2018-04-08T14:56:07.242Z,25.50
2018-04-08T15:01:02.211Z,25.40
2018-04-08T15:05:56.900Z,25.30
2018-04-08T15:10:51.285Z,25.30
2018-04-08T15:15:45.434Z,25.30
2018-04-08T15:20:40.368Z,25.10
2018-04-08T15:25:35.339Z,25.00
2018-04-08T15:30:31.047Z,24.70
2018-04-08T15:35:26.454Z,24.70
2018-04-08T15:40:20.997Z,24.70
2018-04-08T15:45:15.570Z,24.60
2018-04-08T15:50:10.010Z,24.70
2018-04-08T15:55:04.374Z,24.70
2018-04-08T15:59:58.880Z,24.80
2018-04-08T16:04:53.141Z,24.80
2018-04-08T16:09:47.527Z,24.90
2018-04-08T16:14:41.873Z,25.00
2018-04-08T16:19:36.232Z,25.00
2018-04-08T16:24:30.745Z,25.00
2018-04-08T16:29:25.097Z,25.00
2018-04-08T16:34:19.282Z,25.00
2018-04-08T16:39:14.418Z,24.80
2018-04-08T16:44:08.832Z,24.80
2018-04-08T16:49:03.264Z,24.70
2018-04-08T16:54:01.979Z,24.70
2018-04-08T16:58:56.283Z,24.60
2018-04-08T17:03:54.178Z,24.40
2018-04-08T17:08:48.532Z,24.30
2018-04-08T17:13:43.070Z,24.20
2018-04-08T17:18:37.620Z,24.00
2018-04-08T17:23:31.750Z,23.80
2018-04-08T17:28:25.875Z,23.60
2018-04-08T17:33:20.153Z,23.40
2018-04-08T17:38:14.728Z,23.20
2018-04-08T17:43:08.875Z,23.00
2018-04-08T17:48:03.024Z,22.90
2018-04-08T17:52:57.173Z,22.70
2018-04-08T17:57:51.551Z,22.60
2018-04-08T18:02:46.072Z,22.40
2018-04-08T18:07:40.454Z,22.20
2018-04-08T18:12:34.566Z,22.00
2018-04-08T18:17:28.949Z,21.70
2018-04-08T18:22:24.394Z,21.20
2018-04-08T18:27:18.779Z,21.20
2018-04-08T18:32:13.142Z,20.90
2018-04-08T18:37:08.413Z,20.50
2018-04-08T18:42:02.831Z,20.50
2018-04-08T18:46:57.224Z,20.30
2018-04-08T18:51:51.758Z,20.10
2018-04-08T18:56:46.135Z,19.80
2018-04-08T19:01:40.543Z,19.70
2018-04-08T19:06:34.923Z,19.50
2018-04-08T19:11:29.370Z,19.30
2018-04-08T19:16:23.988Z,19.10
2018-04-08T19:21:19.399Z,18.80
2018-04-08T19:26:13.763Z,18.80
2018-04-08T19:31:08.122Z,18.60
2018-04-08T19:36:03.264Z,18.30
2018-04-08T19:40:57.616Z,18.30
2018-04-08T19:45:51.998Z,18.20
2018-04-08T19:50:46.504Z,18.00
2018-04-08T19:55:40.852Z,17.90
2018-04-08T20:00:35.147Z,17.70
2018-04-08T20:05:29.508Z,17.60
2018-04-08T20:10:23.946Z,17.50
2018-04-08T20:15:18.376Z,17.30
2018-04-08T20:20:13.270Z,17.10
2018-04-08T20:25:07.632Z,17.10
2018-04-08T20:30:02.104Z,17.00
2018-04-08T20:34:56.669Z,16.90
2018-04-08T20:39:50.806Z,16.80
2018-04-08T20:44:46.429Z,16.50
2018-04-08T20:49:48.727Z,16.40
2018-04-08T20:54:43.909Z,16.30
2018-04-08T20:59:38.302Z,16.30
2018-04-08T21:04:32.688Z,16.20
2018-04-08T21:09:27.630Z,16.10
2018-04-08T21:14:22.411Z,16.00
2018-04-08T21:19:16.824Z,15.90
2018-04-08T21:24:10.959Z,15.70
2018-04-08T21:29:05.342Z,15.70
2018-04-08T21:33:59.486Z,15.50
2018-04-08T21:38:54.753Z,15.40
2018-04-08T21:43:49.394Z,15.30
2018-04-08T21:48:44.541Z,15.30
2018-04-08T21:53:39.694Z,15.20
2018-04-08T21:58:34.053Z,15.20
2018-04-08T22:03:29.421Z,15.00
2018-04-08T22:08:23.794Z,15.00
2018-04-08T22:13:19.374Z,15.00
2018-04-08T22:18:14.624Z,14.90
2018-04-08T22:23:11.189Z,14.90
2018-04-08T22:28:06.332Z,15.10
2018-04-08T22:33:01.694Z,15.00
2018-04-08T22:37:56.271Z,15.00
2018-04-08T22:42:50.768Z,14.90
2018-04-08T22:47:45.195Z,14.70
2018-04-08T22:52:39.908Z,14.70
2018-04-08T22:57:34.291Z,14.60
2018-04-08T23:02:29.466Z,14.50
2018-04-08T23:07:24.607Z,14.20
2018-04-08T23:12:20.031Z,14.20
2018-04-08T23:17:15.214Z,14.10
2018-04-08T23:22:09.777Z,14.10
2018-04-08T23:27:04.288Z,14.20
2018-04-08T23:31:58.406Z,14.20
2018-04-08T23:36:53.556Z,14.00
2018-04-08T23:41:47.958Z,14.00
2018-04-08T23:46:42.328Z,13.90
2018-04-08T23:51:36.706Z,13.80
2018-04-08T23:56:31.088Z,13.80
